Time;durP1;ratioP1;P1;durP2;ratioP2;P2;SDS_P1;SDS_P2;PMS_P1;PMS_P2;Temp;Humidity;BMP_temperature;BMP_pressure;BME280_temperature;BME280_humidity;BME280_pressure;Samples;Min_cycle;Max_cycle;Signal;HPM_P1;HPM_P2
2021/05/24 00:00:16;;;;;;;21.83;16.77;;;;;;;7.90;82.15;99422.32;124603;1104;64336;-84
2021/05/24 00:03:04;;;;;;;19.97;16.17;;;;;;;7.83;81.88;99421.75;124661;1104;64463;-85
2021/05/24 00:05:34;;;;;;;18.47;16.07;;;;;;;7.79;81.97;99419.31;124657;1104;64424;-85
2021/05/24 00:08:02;;;;;;;20.05;16.35;;;;;;;7.75;82.09;99423.92;124578;1097;64326;-84
2021/05/24 00:10:32;;;;;;;19.67;16.63;;;;;;;7.73;82.17;99425.78;124659;1104;64425;-84
2021/05/24 00:13:04;;;;;;;19.10;15.25;;;;;;;7.72;82.15;99437.34;124611;1104;64266;-85
2021/05/24 00:15:41;;;;;;;17.97;15.17;;;;;;;7.70;82.16;99447.16;124594;1104;64332;-84
2021/05/24 00:18:09;;;;;;;20.43;15.73;;;;;;;7.67;82.32;99447.31;124678;1104;64253;-85
2021/05/24 00:20:41;;;;;;;17.40;15.47;;;;;;;7.65;82.27;99449.17;124521;1104;64444;-84
2021/05/24 00:23:08;;;;;;;18.77;15.37;;;;;;;7.61;82.51;99445.81;124697;1104;64438;-84
2021/05/24 00:25:36;;;;;;;19.20;15.30;;;;;;;7.63;82.65;99448.38;124657;1097;64339;-85
2021/05/24 00:28:07;;;;;;;19.33;15.50;;;;;;;7.64;82.64;99445.66;124653;1104;64281;-86
2021/05/24 00:30:34;;;;;;;19.27;17.03;;;;;;;7.66;82.49;99445.56;124683;1097;64361;-85
2021/05/24 00:33:03;;;;;;;21.77;17.87;;;;;;;7.67;82.80;99447.31;124609;1097;64393;-85
2021/05/24 00:35:31;;;;;;;19.90;17.90;;;;;;;7.63;82.74;99456.33;124672;1096;64275;-84
2021/05/24 00:37:59;;;;;;;19.80;17.70;;;;;;;7.59;82.76;99449.47;124654;1097;64335;-84
2021/05/24 00:40:26;;;;;;;22.00;19.23;;;;;;;7.55;82.47;99456.69;124613;1097;64243;-84
2021/05/24 00:42:55;;;;;;;23.10;18.95;;;;;;;7.51;82.66;99457.78;124614;1104;64278;-85
2021/05/24 00:45:23;;;;;;;19.20;17.25;;;;;;;7.46;82.66;99452.69;124615;1104;64385;-86
2021/05/24 00:47:50;;;;;;;24.50;20.90;;;;;;;7.45;82.85;99461.59;124598;1104;64456;-84
2021/05/24 00:50:19;;;;;;;24.83;21.90;;;;;;;7.46;82.82;99451.83;124560;1104;64303;-85
2021/05/24 00:52:47;;;;;;;20.50;18.37;;;;;;;7.44;82.97;99445.73;124594;1104;64253;-85
2021/05/24 00:55:15;;;;;;;21.97;19.70;;;;;;;7.51;83.21;99448.97;124641;1097;64339;-84
2021/05/24 00:57:44;;;;;;;22.37;19.50;;;;;;;7.53;83.02;99452.39;124630;1104;64335;-86
2021/05/24 01:00:25;;;;;;;20.40;17.90;;;;;;;7.47;82.55;99451.74;124722;1103;64303;-84
2021/05/24 01:02:55;;;;;;;19.20;17.20;;;;;;;7.41;82.84;99449.39;124559;1104;64323;-85
2021/05/24 01:05:25;;;;;;;21.30;16.83;;;;;;;7.38;82.85;99451.34;124713;1104;64346;-84
2021/05/24 01:07:52;;;;;;;17.25;14.85;;;;;;;7.37;82.92;99452.25;124665;1104;64408;-85
2021/05/24 01:10:19;;;;;;;15.93;14.23;;;;;;;7.34;82.79;99450.59;124655;1104;64287;-85
2021/05/24 01:12:47;;;;;;;17.35;14.75;;;;;;;7.28;82.80;99455.34;124551;1104;64480;-84
2021/05/24 01:15:15;;;;;;;15.87;14.27;;;;;;;7.18;82.55;99463.70;124647;1097;64422;-84
2021/05/24 01:17:43;;;;;;;18.40;16.53;;;;;;;7.14;82.42;99459.48;124629;1097;64336;-85
2021/05/24 01:20:11;;;;;;;17.30;15.60;;;;;;;7.06;82.44;99455.44;124720;1104;64342;-85
2021/05/24 01:22:44;;;;;;;20.85;18.45;;;;;;;6.99;82.53;99461.02;124501;1097;64358;-84
2021/05/24 01:25:12;;;;;;;15.10;13.50;;;;;;;6.91;82.55;99457.00;124615;1104;64400;-85
2021/05/24 01:27:39;;;;;;;18.40;16.50;;;;;;;6.83;82.43;99467.94;124707;1104;64259;-86
2021/05/24 01:30:07;;;;;;;20.70;17.17;;;;;;;6.76;82.40;99471.78;124568;1104;64323;-86
2021/05/24 01:32:34;;;;;;;18.50;16.13;;;;;;;6.68;82.28;99474.75;124627;1104;64325;-84
2021/05/24 01:35:01;;;;;;;16.93;15.13;;;;;;;6.60;82.26;99463.63;124613;1104;64361;-85
2021/05/24 01:37:28;;;;;;;18.27;16.37;;;;;;;6.66;82.88;99459.86;124536;1097;64483;-84
2021/05/24 01:39:59;;;;;;;18.40;15.97;;;;;;;6.70;82.70;99461.46;124651;1097;64362;-84
2021/05/24 01:42:26;;;;;;;15.57;14.00;;;;;;;6.65;82.42;99461.65;124764;1097;64748;-84
2021/05/24 01:44:54;;;;;;;18.17;16.23;;;;;;;6.62;82.47;99461.79;124677;1097;64425;-84
2021/05/24 01:47:21;;;;;;;18.00;16.20;;;;;;;6.56;82.30;99468.21;124581;1097;64339;-84
2021/05/24 01:49:48;;;;;;;17.80;15.47;;;;;;;6.49;82.10;99465.89;124613;1097;64352;-84
2021/05/24 01:52:17;;;;;;;17.73;15.37;;;;;;;6.40;81.91;99474.20;124624;1097;64328;-84
2021/05/24 01:54:46;;;;;;;19.07;15.17;;;;;;;6.29;81.83;99472.91;124684;1097;64329;-85
2021/05/24 01:57:14;;;;;;;26.33;22.80;;;;;;;6.20;81.99;99480.35;124557;1104;64259;-84
2021/05/24 01:59:41;;;;;;;22.10;19.10;;;;;;;6.14;82.18;99482.33;124545;1104;64366;-84
2021/05/24 02:02:09;;;;;;;21.70;19.40;;;;;;;6.12;82.52;99483.31;124514;1097;64402;-85
2021/05/24 02:04:36;;;;;;;20.00;17.90;;;;;;;6.07;82.66;99472.91;124522;1097;64368;-85
2021/05/24 02:07:04;;;;;;;20.20;17.20;;;;;;;6.06;82.39;99475.63;124636;1104;64435;-85
2021/05/24 02:09:31;;;;;;;24.60;18.70;;;;;;;6.12;83.05;99468.29;124650;1104;64335;-85
2021/05/24 02:11:58;;;;;;;18.13;16.00;;;;;;;6.23;83.10;99474.92;124563;1097;64348;-85
2021/05/24 02:14:28;;;;;;;19.28;17.28;;;;;;;6.21;82.65;99476.77;124688;1097;64399;-85
2021/05/24 02:16:55;;;;;;;20.25;18.20;;;;;;;6.15;82.63;99477.88;124707;1104;64431;-85
2021/05/24 02:19:23;;;;;;;20.03;17.93;;;;;;;6.08;82.32;99474.64;124624;1097;64335;-86
2021/05/24 02:21:50;;;;;;;18.65;16.50;;;;;;;6.01;82.39;99473.17;124609;1104;64306;-84
2021/05/24 02:24:17;;;;;;;20.03;17.40;;;;;;;5.97;82.36;99479.48;124531;1104;64352;-84
2021/05/24 02:26:45;;;;;;;22.47;20.10;;;;;;;5.89;82.43;99473.61;124612;1104;64560;-84
2021/05/24 02:29:14;;;;;;;20.80;17.30;;;;;;;5.84;82.38;99472.94;124643;1104;64352;-83
2021/05/24 02:31:41;;;;;;;21.37;16.87;;;;;;;5.78;82.43;99476.69;124679;1097;64329;-85
2021/05/24 02:34:09;;;;;;;19.50;16.73;;;;;;;5.77;82.71;99480.27;124511;1097;64394;-84
2021/05/24 02:36:36;;;;;;;21.10;16.00;;;;;;;5.80;82.64;99482.79;124533;1104;64418;-85
2021/05/24 02:39:06;;;;;;;18.87;15.90;;;;;;;5.81;82.72;99481.00;124574;1104;64467;-84
2021/05/24 02:41:34;;;;;;;18.87;16.93;;;;;;;5.83;82.61;99489.74;124696;1104;64422;-84
2021/05/24 02:44:03;;;;;;;22.37;20.17;;;;;;;5.84;82.72;99494.09;124590;1097;64278;-84
2021/05/24 02:46:30;;;;;;;30.03;22.53;;;;;;;5.83;82.80;99487.09;124618;1104;64278;-84
2021/05/24 02:48:58;;;;;;;50.13;32.13;;;;;;;5.88;83.26;99487.78;124552;1097;64332;-83
2021/05/24 02:51:25;;;;;;;38.53;32.13;;;;;;;5.97;83.40;99489.22;124631;1104;64413;-83
2021/05/24 02:53:52;;;;;;;43.90;31.50;;;;;;;6.02;83.54;99496.05;124575;1104;64336;-84
2021/05/24 02:56:19;;;;;;;30.13;23.77;;;;;;;6.05;83.31;99502.99;124655;1104;64339;-84
2021/05/24 02:58:47;;;;;;;26.50;22.87;;;;;;;6.11;83.29;99493.04;124613;1097;64303;-84
2021/05/24 03:01:14;;;;;;;27.97;22.83;;;;;;;6.18;83.44;99498.92;124491;1097;64406;-84
2021/05/24 03:03:42;;;;;;;23.07;19.47;;;;;;;6.22;83.15;99500.53;124614;1097;64450;-84
2021/05/24 03:06:10;;;;;;;21.73;18.73;;;;;;;6.22;83.17;99499.69;124598;1104;64371;-84
2021/05/24 03:08:37;;;;;;;19.57;17.50;;;;;;;6.25;83.02;99507.49;124593;1104;64344;-85
2021/05/24 03:11:04;;;;;;;19.40;17.03;;;;;;;6.26;82.89;99509.20;124524;1104;64252;-85
2021/05/24 03:13:31;;;;;;;21.93;19.63;;;;;;;6.29;82.84;99520.55;124599;1097;64306;-84
2021/05/24 03:15:59;;;;;;;23.30;19.87;;;;;;;6.32;82.74;99516.91;124567;1104;64254;-83
2021/05/24 03:18:26;;;;;;;27.43;21.90;;;;;;;6.79;82.42;99506.96;124564;1097;64428;-85
2021/05/24 03:20:53;;;;;;;25.35;21.95;;;;;;;7.55;81.48;99512.39;124595;1097;64333;-85
2021/05/24 03:23:20;;;;;;;28.63;23.13;;;;;;;8.36;80.41;99502.33;124584;1097;64329;-85
2021/05/24 03:25:47;;;;;;;29.05;22.85;;;;;;;9.31;79.66;99496.59;124596;1104;64480;-84
2021/05/24 03:28:15;;;;;;;28.53;25.30;;;;;;;10.26;78.50;99494.81;124567;1104;64441;-85
2021/05/24 03:30:42;;;;;;;28.60;25.60;;;;;;;11.18;77.50;99488.52;124622;1104;64249;-84
2021/05/24 03:33:09;;;;;;;25.43;22.87;;;;;;;11.84;75.86;99490.55;124518;1097;64363;-84
2021/05/24 03:35:37;;;;;;;24.00;21.67;;;;;;;12.51;75.15;99484.47;124605;1097;64303;-83
2021/05/24 03:38:04;;;;;;;25.37;22.50;;;;;;;13.23;73.75;99468.80;124549;1097;64239;-85
2021/05/24 03:40:31;;;;;;;23.03;20.70;;;;;;;13.88;72.81;99475.80;124630;1104;64379;-85
2021/05/24 03:42:59;;;;;;;22.17;20.03;;;;;;;14.50;71.74;99472.94;124642;1104;64352;-84
2021/05/24 03:45:28;;;;;;;22.23;20.03;;;;;;;15.11;70.67;99475.48;124554;1104;64256;-84
2021/05/24 03:47:55;;;;;;;22.50;20.05;;;;;;;15.71;69.82;99470.75;124603;1097;64336;-84
2021/05/24 03:50:24;;;;;;;20.85;18.80;;;;;;;16.17;68.29;99469.70;124606;1104;64326;-84
2021/05/24 03:52:52;;;;;;;22.25;20.20;;;;;;;16.55;67.55;99471.02;124604;1104;64779;-84
2021/05/24 03:55:20;;;;;;;17.87;16.27;;;;;;;16.89;66.02;99465.50;124630;1104;64323;-83
2021/05/24 03:57:49;;;;;;;17.53;16.07;;;;;;;17.26;65.22;99460.48;124602;1104;64358;-84
2021/05/24 04:00:17;;;;;;;17.20;15.57;;;;;;;17.78;64.08;99450.48;124594;1104;64323;-85
2021/05/24 04:02:45;;;;;;;17.77;16.17;;;;;;;18.06;62.92;99448.03;124568;1097;64246;-85
2021/05/24 04:05:22;;;;;;;17.20;15.43;;;;;;;18.22;60.96;99442.09;124782;1104;64384;-84
2021/05/24 04:07:52;;;;;;;17.30;15.50;;;;;;;18.34;60.72;99435.55;124676;1097;64334;-84
2021/05/24 04:10:24;;;;;;;16.83;15.20;;;;;;;18.45;60.31;99448.05;124633;1097;64307;-83
2021/05/24 04:12:51;;;;;;;15.70;14.20;;;;;;;18.71;59.18;99448.33;124749;1097;64266;-84
2021/05/24 04:15:19;;;;;;;15.70;14.30;;;;;;;19.00;59.33;99460.97;124560;1104;64373;-84
2021/05/24 04:17:48;;;;;;;13.70;12.33;;;;;;;19.21;57.93;99456.22;124698;1104;64339;-87
2021/05/24 04:20:17;;;;;;;12.90;11.70;;;;;;;19.23;57.82;99454.23;124601;1104;64306;-85
2021/05/24 04:22:45;;;;;;;12.53;11.33;;;;;;;19.63;57.79;99463.90;124645;1104;64416;-84
2021/05/24 04:25:13;;;;;;;11.00;9.93;;;;;;;19.86;57.08;99458.14;124989;1097;64323;-85
2021/05/24 04:27:40;;;;;;;11.97;10.97;;;;;;;20.19;56.30;99467.45;124657;1104;64486;-84
2021/05/24 04:30:09;;;;;;;11.55;10.55;;;;;;;20.11;55.79;99467.38;124775;1104;64435;-84
2021/05/24 04:32:36;;;;;;;;;;;;;;;20.33;55.10;99479.64;124898;1104;64362;-84
2021/05/24 04:35:05;;;;;;;10.73;9.83;;;;;;;20.54;54.36;99480.22;124701;1097;64253;-84
2021/05/24 04:37:34;;;;;;;8.33;7.63;;;;;;;20.72;53.96;99484.77;124728;1104;64361;-83
2021/05/24 04:40:01;;;;;;;7.25;6.55;;;;;;;20.91;53.74;99486.47;124554;1104;64405;-83
2021/05/24 04:42:28;;;;;;;7.43;6.63;;;;;;;21.07;53.17;99489.30;124562;1104;64479;-83
2021/05/24 04:44:56;;;;;;;9.85;6.60;;;;;;;21.28;52.60;99488.10;124622;1104;64323;-84
2021/05/24 04:47:23;;;;;;;7.00;6.40;;;;;;;21.43;52.13;99495.52;124611;1104;64425;-83
2021/05/24 04:49:51;;;;;;;8.17;7.37;;;;;;;21.61;51.62;99505.44;124856;1104;64342;-84
2021/05/24 04:52:19;;;;;;;9.05;8.25;;;;;;;21.61;50.62;99502.72;124582;1104;64253;-83
2021/05/24 04:54:46;;;;;;;8.30;7.60;;;;;;;21.48;49.53;99501.31;124595;1104;64403;-84
2021/05/24 04:57:14;;;;;;;8.83;8.13;;;;;;;21.32;50.06;99501.16;124530;1097;64346;-84
2021/05/24 04:59:42;;;;;;;9.17;8.37;;;;;;;21.37;50.46;99504.23;124603;1104;64307;-84
2021/05/24 05:02:09;;;;;;;10.40;8.43;;;;;;;21.53;49.92;99497.25;124750;1104;64252;-83
2021/05/24 05:04:37;;;;;;;8.95;8.20;;;;;;;21.65;50.15;99494.11;124595;1104;64426;-84
2021/05/24 05:07:04;;;;;;;9.27;8.47;;;;;;;21.85;49.34;99500.16;124636;1097;64431;-82
2021/05/24 05:09:31;;;;;;;10.77;8.57;;;;;;;21.79;49.33;99489.92;124606;1097;64330;-83
2021/05/24 05:11:58;;;;;;;8.67;7.87;;;;;;;21.83;49.05;99491.31;124669;1104;64336;-84
2021/05/24 05:14:26;;;;;;;8.70;8.00;;;;;;;21.91;49.14;99494.06;124570;1097;64763;-83
2021/05/24 05:16:53;;;;;;;9.90;8.30;;;;;;;22.06;47.95;99505.13;124572;1104;64310;-83
2021/05/24 05:19:21;;;;;;;9.50;8.57;;;;;;;22.08;48.47;99508.53;124639;1097;64342;-84
2021/05/24 05:21:50;;;;;;;9.00;8.10;;;;;;;22.09;47.78;99507.54;124613;1104;64252;-84
2021/05/24 05:24:18;;;;;;;8.30;7.60;;;;;;;22.16;48.36;99507.72;124625;1097;64411;-83
2021/05/24 05:26:46;;;;;;;7.90;7.13;;;;;;;22.27;48.06;99504.72;124653;1097;64336;-83
2021/05/24 05:29:13;;;;;;;8.23;7.43;;;;;;;22.26;47.72;99505.75;124551;1097;64373;-83
2021/05/24 05:31:41;;;;;;;7.43;6.80;;;;;;;22.37;48.04;99518.16;124620;1104;64320;-83
2021/05/24 05:34:08;;;;;;;7.50;6.80;;;;;;;22.47;47.81;99508.01;124640;1097;64332;-83
2021/05/24 05:36:37;;;;;;;7.97;7.20;;;;;;;22.48;47.04;99506.98;124622;1104;64355;-83
2021/05/24 05:39:06;;;;;;;7.30;6.70;;;;;;;22.46;46.93;99500.02;124630;1097;64339;-83
2021/05/24 05:41:34;;;;;;;7.80;6.20;;;;;;;22.21;47.04;99496.41;124641;1097;64330;-83
2021/05/24 05:44:04;;;;;;;8.13;7.43;;;;;;;22.00;47.61;99502.23;124622;1104;64335;-84
2021/05/24 05:46:32;;;;;;;7.50;6.70;;;;;;;21.88;47.31;99507.97;124625;1104;64430;-85
2021/05/24 05:48:59;;;;;;;6.80;6.10;;;;;;;21.99;46.77;99501.39;124668;1104;64252;-82
2021/05/24 05:51:27;;;;;;;7.53;6.07;;;;;;;21.82;46.76;99494.18;124645;1104;64243;-83
2021/05/24 05:53:57;;;;;;;6.43;5.10;;;;;;;21.74;45.96;99491.44;124621;1104;64515;-83
2021/05/24 05:56:26;;;;;;;8.60;5.17;;;;;;;21.67;46.50;99497.52;124631;1104;64472;-82
2021/05/24 05:58:53;;;;;;;7.70;6.40;;;;;;;21.65;47.01;99506.83;124632;1097;64336;-82
2021/05/24 06:01:21;;;;;;;7.73;5.50;;;;;;;21.82;46.54;99511.30;124623;1097;64418;-84
2021/05/24 06:03:49;;;;;;;8.15;6.00;;;;;;;21.72;46.44;99505.14;124642;1104;64246;-83
2021/05/24 06:06:16;;;;;;;5.40;4.90;;;;;;;21.87;46.27;99516.25;124669;1104;64429;-83
2021/05/24 06:08:43;;;;;;;6.37;5.00;;;;;;;22.04;46.61;99519.91;124696;1104;64426;-85
2021/05/24 06:11:11;;;;;;;6.77;4.97;;;;;;;22.22;46.38;99507.11;124663;1096;64326;-85
2021/05/24 06:13:38;;;;;;;5.80;5.10;;;;;;;22.33;46.30;99504.08;124764;1097;64339;-84
2021/05/24 06:16:06;;;;;;;6.45;5.30;;;;;;;22.45;46.56;99518.18;124690;1104;64425;-86
2021/05/24 06:18:33;;;;;;;7.63;4.87;;;;;;;22.46;46.67;99513.59;124625;1104;64461;-85
2021/05/24 06:21:00;;;;;;;5.13;4.50;;;;;;;22.15;47.25;99525.03;124721;1096;64483;-84
2021/05/24 06:23:28;;;;;;;6.13;4.07;;;;;;;21.78;47.83;99522.67;124685;1104;64426;-84
2021/05/24 06:25:55;;;;;;;5.07;4.57;;;;;;;21.34;48.14;99528.13;124696;1097;64339;-83
2021/05/24 06:28:22;;;;;;;4.63;4.23;;;;;;;21.02;48.62;99534.99;124653;1104;64303;-85
2021/05/24 06:30:49;;;;;;;3.93;3.57;;;;;;;20.78;48.39;99539.19;124655;1097;64316;-84
2021/05/24 06:33:17;;;;;;;7.27;4.80;;;;;;;20.66;48.69;99529.58;124648;1097;64419;-83
2021/05/24 06:35:44;;;;;;;4.43;4.10;;;;;;;20.40;48.53;99524.02;124630;1104;64327;-84
2021/05/24 06:38:11;;;;;;;4.33;3.93;;;;;;;20.11;48.99;99533.16;124575;1104;64310;-84
2021/05/24 06:40:38;;;;;;;4.55;4.10;;;;;;;19.93;49.87;99526.84;124691;1104;64261;-84
2021/05/24 06:43:05;;;;;;;4.73;4.20;;;;;;;19.87;49.63;99531.00;124625;1104;64332;-83
2021/05/24 06:45:33;;;;;;;4.65;3.20;;;;;;;19.85;49.25;99526.74;124669;1104;64339;-84
2021/05/24 06:48:00;;;;;;;6.33;4.57;;;;;;;19.88;49.33;99527.32;124631;1104;64339;-84
2021/05/24 06:50:27;;;;;;;5.60;4.20;;;;;;;19.84;49.75;99516.94;124663;1104;64339;-85
2021/05/24 06:52:54;;;;;;;6.40;4.30;;;;;;;19.87;49.73;99514.78;124653;1097;64303;-85
2021/05/24 06:55:22;;;;;;;5.77;4.40;;;;;;;19.83;50.14;99528.77;124630;1104;64363;-84
2021/05/24 06:57:49;;;;;;;5.30;3.90;;;;;;;19.74;49.88;99522.38;124662;1104;64538;-83
2021/05/24 07:00:17;;;;;;;5.00;3.80;;;;;;;19.68;50.00;99531.09;124808;1104;64806;-84
2021/05/24 07:02:47;;;;;;;4.40;4.00;;;;;;;19.84;50.18;99519.64;124588;1104;64374;-85
2021/05/24 07:05:15;;;;;;;4.20;3.80;;;;;;;19.82;49.86;99527.89;124584;1096;64352;-83
2021/05/24 07:07:42;;;;;;;5.30;3.90;;;;;;;19.75;50.01;99540.33;124575;1104;64435;-84
2021/05/24 07:10:12;;;;;;;4.17;3.70;;;;;;;19.79;50.51;99530.90;124607;1097;64256;-84
2021/05/24 07:12:40;;;;;;;3.57;3.27;;;;;;;19.67;50.75;99529.41;124587;1104;64399;-85
2021/05/24 07:15:07;;;;;;;3.23;3.03;;;;;;;19.95;50.57;99535.67;124594;1097;64303;-84
2021/05/24 07:17:35;;;;;;;6.30;3.27;;;;;;;20.20;49.79;99528.72;124556;1096;64351;-84
2021/05/24 07:20:04;;;;;;;3.30;2.10;;;;;;;20.16;49.89;99528.16;124599;1104;64256;-84
2021/05/24 07:22:32;;;;;;;4.50;2.98;;;;;;;20.28;49.16;99531.52;124642;1105;64687;-83
2021/05/24 07:24:59;;;;;;;3.73;3.03;;;;;;;20.17;48.94;99518.20;124786;1096;64389;-84
2021/05/24 07:27:26;;;;;;;5.95;3.80;;;;;;;19.89;48.87;99520.05;124776;1104;64370;-84
2021/05/24 07:29:53;;;;;;;3.40;3.05;;;;;;;19.67;48.90;99522.14;124740;1104;64361;-84
2021/05/24 07:32:21;;;;;;;6.35;3.50;;;;;;;19.54;49.55;99510.77;124534;1104;64722;-84
2021/05/24 07:34:48;;;;;;;4.80;3.40;;;;;;;19.56;49.04;99508.74;124710;1097;64406;-84
2021/05/24 07:37:15;;;;;;;4.50;3.37;;;;;;;19.43;49.44;99498.28;124664;1104;64349;-84
2021/05/24 07:39:43;;;;;;;5.40;2.40;;;;;;;19.40;49.44;99498.55;124724;1104;64421;-83
2021/05/24 07:42:10;;;;;;;3.57;3.23;;;;;;;19.48;50.21;99498.70;124685;1104;64365;-87
2021/05/24 07:44:37;;;;;;;3.83;3.10;;;;;;;19.46;49.90;99486.33;124740;1104;64371;-85
2021/05/24 07:47:06;;;;;;;2.97;2.30;;;;;;;19.42;48.82;99487.61;124919;1097;64393;-84
2021/05/24 07:49:33;;;;;;;3.70;2.60;;;;;;;19.30;48.34;99487.79;124893;1097;64365;-84
2021/05/24 07:52:01;;;;;;;3.67;2.27;;;;;;;19.29;48.77;99479.81;124756;1104;64300;-84
2021/05/24 07:54:28;;;;;;;3.70;2.93;;;;;;;19.44;49.18;99474.80;124683;1097;64923;-84
2021/05/24 07:56:55;;;;;;;4.70;3.30;;;;;;;19.62;48.67;99489.25;124593;1097;64379;-85
2021/05/24 07:59:22;;;;;;;4.20;3.20;;;;;;;19.66;48.57;99479.85;124666;1104;64488;-84
2021/05/24 08:01:50;;;;;;;5.10;2.80;;;;;;;19.69;49.18;99482.25;124664;1104;64361;-84
2021/05/24 08:04:17;;;;;;;4.50;4.10;;;;;;;19.76;49.09;99487.08;124518;1097;64279;-85
2021/05/24 08:06:44;;;;;;;5.93;5.17;;;;;;;19.90;49.86;99478.45;124652;1104;64348;-84
2021/05/24 08:09:11;;;;;;;4.10;3.70;;;;;;;19.92;49.78;99484.58;124636;1104;64437;-84
2021/05/24 08:11:38;;;;;;;4.83;3.80;;;;;;;19.99;49.50;99485.69;124644;1104;64249;-85
2021/05/24 08:14:06;;;;;;;4.47;3.43;;;;;;;20.11;49.07;99487.16;124618;1097;64330;-84
2021/05/24 08:16:33;;;;;;;3.77;2.60;;;;;;;20.21;48.30;99487.11;124720;1104;64345;-86
2021/05/24 08:19:01;;;;;;;3.67;2.83;;;;;;;20.22;48.10;99475.30;124642;1104;64253;-84
2021/05/24 08:21:28;;;;;;;3.77;3.13;;;;;;;20.33;48.51;99466.11;124607;1097;64467;-84
2021/05/24 08:23:55;;;;;;;3.20;2.90;;;;;;;20.60;48.46;99467.91;124643;1104;64589;-84
2021/05/24 08:26:23;;;;;;;3.73;3.23;;;;;;;20.83;48.54;99469.13;124567;1104;64332;-84
2021/05/24 08:28:50;;;;;;;12.47;3.53;;;;;;;20.88;48.29;99455.13;124606;1104;64326;-84
2021/05/24 08:31:17;;;;;;;4.77;3.23;;;;;;;20.90;47.86;99447.66;124579;1104;64336;-84
2021/05/24 08:33:44;;;;;;;3.33;2.57;;;;;;;20.93;48.16;99441.95;124615;1097;64355;-84
2021/05/24 08:36:12;;;;;;;4.30;3.50;;;;;;;21.03;48.30;99450.81;124593;1097;64252;-85
2021/05/24 08:38:39;;;;;;;3.10;2.60;;;;;;;21.29;48.19;99441.83;124597;1097;64329;-84
2021/05/24 08:41:08;;;;;;;4.10;2.80;;;;;;;21.40;46.70;99441.58;124679;1097;64249;-84
2021/05/24 08:43:37;;;;;;;3.80;2.80;;;;;;;21.18;47.14;99433.98;124651;1104;64297;-84
2021/05/24 08:46:05;;;;;;;3.27;2.80;;;;;;;21.07;45.94;99420.70;124693;1104;64329;-84
2021/05/24 08:48:34;;;;;;;3.13;2.40;;;;;;;20.87;46.62;99429.02;124653;1104;64477;-84
2021/05/24 08:51:05;;;;;;;2.67;2.37;;;;;;;20.80;46.43;99422.52;124580;1096;64306;-84
2021/05/24 08:53:33;;;;;;;3.20;2.77;;;;;;;20.95;47.51;99409.27;124639;1104;64223;-84
2021/05/24 08:56:01;;;;;;;2.60;2.40;;;;;;;21.21;47.07;99411.97;124633;1104;64253;-83
2021/05/24 08:58:29;;;;;;;3.20;2.47;;;;;;;21.22;46.24;99410.95;124559;1104;64359;-84
2021/05/24 09:00:56;;;;;;;4.93;2.20;;;;;;;21.25;46.77;99418.78;124566;1097;64339;-84
2021/05/24 09:03:25;;;;;;;5.13;2.70;;;;;;;21.21;45.95;99428.23;124576;1104;64461;-83
2021/05/24 09:05:53;;;;;;;2.60;2.27;;;;;;;21.21;45.96;99423.66;124686;1097;64897;-84
2021/05/24 09:08:42;;;;;;;2.53;2.10;;;;;;;21.29;45.80;99444.55;124694;1096;64326;-84
2021/05/24 09:11:27;;;;;;;3.90;2.07;;;;;;;21.09;45.81;99443.05;124556;1104;64339;-84
2021/05/24 09:13:54;;;;;;;2.50;2.03;;;;;;;21.33;46.71;99439.64;124637;1104;64486;-84
2021/05/24 09:16:32;;;;;;;2.30;1.57;;;;;;;21.68;45.85;99420.53;124652;1104;64339;-83
2021/05/24 09:19:14;;;;;;;2.60;2.00;;;;;;;21.69;45.65;99419.51;124821;1097;64223;-83
2021/05/24 09:22:09;;;;;;;2.63;1.93;;;;;;;21.63;45.23;99419.33;124565;1097;64361;-83
2021/05/24 09:24:39;;;;;;;2.90;1.93;;;;;;;21.60;45.90;99408.81;124601;1104;64333;-83
2021/05/24 09:27:23;;;;;;;3.23;1.63;;;;;;;21.73;45.35;99409.20;124629;1104;64330;-85
2021/05/24 09:29:53;;;;;;;1.90;1.70;;;;;;;21.76;45.65;99411.58;124648;1096;64335;-83
2021/05/24 09:32:25;;;;;;;1.70;1.60;;;;;;;21.69;45.38;99408.66;124706;1097;64350;-84
2021/05/24 09:34:55;;;;;;;3.30;2.00;;;;;;;21.57;45.19;99399.14;124553;1104;64330;-85
2021/05/24 09:37:48;;;;;;;4.58;1.85;;;;;;;21.53;45.79;99391.48;124590;1097;64428;-84
2021/05/24 09:40:21;;;;;;;3.40;2.35;;;;;;;21.50;45.52;99389.10;124624;1097;64332;-84
2021/05/24 09:42:49;;;;;;;4.80;2.47;;;;;;;21.42;45.18;99392.63;124683;1104;64326;-83
2021/05/24 09:45:18;;;;;;;3.10;2.03;;;;;;;21.41;45.22;99383.64;124566;1104;64342;-84
2021/05/24 09:47:47;;;;;;;2.33;2.10;;;;;;;21.39;45.36;99377.53;124571;1104;64375;-85
2021/05/24 09:50:18;;;;;;;2.83;2.15;;;;;;;21.51;45.72;99378.07;124627;1104;64325;-85
2021/05/24 09:52:47;;;;;;;1.77;1.23;;;;;;;21.64;44.61;99377.61;124653;1104;64371;-84
2021/05/24 09:55:20;;;;;;;2.65;2.13;;;;;;;21.56;44.35;99370.30;124599;1104;64343;-84
2021/05/24 09:58:05;;;;;;;2.63;1.97;;;;;;;21.48;45.04;99379.28;124626;1104;64252;-84
2021/05/24 10:01:02;;;;;;;2.50;1.50;;;;;;;21.48;45.04;99381.99;124650;1104;64329;-84
2021/05/24 10:03:34;;;;;;;1.70;1.60;;;;;;;21.53;45.27;99380.63;124578;1097;64323;-84
2021/05/24 10:06:02;;;;;;;2.40;1.40;;;;;;;21.58;45.43;99368.28;124619;1104;64419;-84
2021/05/24 10:08:31;;;;;;;2.37;1.40;;;;;;;21.72;45.76;99366.78;124627;1097;64644;-85
2021/05/24 10:11:00;;;;;;;1.53;1.40;;;;;;;21.71;45.08;99370.53;124757;1104;64252;-84
2021/05/24 10:13:28;;;;;;;1.85;1.60;;;;;;;21.75;45.08;99366.48;124655;1097;64350;-84
2021/05/24 10:16:02;;;;;;;2.95;1.50;;;;;;;21.85;44.56;99360.89;124631;1104;64444;-83
2021/05/24 10:18:31;;;;;;;0.93;0.93;;;;;;;21.88;44.49;99358.72;124578;1097;64243;-85
2021/05/24 10:21:00;;;;;;;;;;;;;;;22.04;43.51;99357.05;124717;1104;64339;-84
2021/05/24 10:23:29;;;;;;;5.00;2.23;;;;;;;22.01;43.48;99347.38;124617;1096;64374;-85
2021/05/24 10:25:59;;;;;;;2.40;1.53;;;;;;;22.18;43.24;99339.24;124625;1097;64334;-85
2021/05/24 10:28:28;;;;;;;6.57;2.40;;;;;;;22.24;42.94;99346.73;124652;1104;64400;-84
2021/05/24 10:30:57;;;;;;;1.50;1.33;;;;;;;22.33;43.35;99340.30;124664;1097;64455;-83
2021/05/24 10:33:41;;;;;;;2.20;1.00;;;;;;;22.43;42.75;99338.23;124596;1104;64744;-83
2021/05/24 10:36:19;;;;;;;1.77;1.20;;;;;;;22.51;43.00;99349.13;124682;1104;64326;-85
2021/05/24 10:39:11;;;;;;;1.25;1.15;;;;;;;22.65;42.07;99338.59;124660;1097;64258;-84
2021/05/24 10:41:47;;;;;;;1.25;1.15;;;;;;;22.72;42.49;99342.28;124611;1097;64321;-84
2021/05/24 10:44:17;;;;;;;1.63;1.53;;;;;;;22.79;42.62;99335.99;124629;1097;64330;-84
2021/05/24 10:46:44;;;;;;;2.20;1.70;;;;;;;22.94;42.17;99329.86;124655;1104;64330;-84
2021/05/24 10:49:25;;;;;;;2.33;1.67;;;;;;;22.95;41.99;99324.23;124681;1097;64279;-84
2021/05/24 10:51:59;;;;;;;5.13;2.37;;;;;;;23.06;41.97;99316.77;124644;1097;64402;-84
2021/05/24 10:54:30;;;;;;;3.87;1.67;;;;;;;23.15;42.86;99313.85;124660;1104;64450;-84
2021/05/24 10:57:00;;;;;;;1.57;1.00;;;;;;;23.03;41.50;99317.12;124716;1104;64598;-84
2021/05/24 10:59:55;;;;;;;3.00;1.53;;;;;;;23.02;41.43;99321.71;124631;1097;64329;-84
2021/05/24 11:02:30;;;;;;;2.70;1.40;;;;;;;23.11;41.65;99301.62;124643;1104;64374;-84
2021/05/24 11:05:01;;;;;;;1.97;1.47;;;;;;;23.21;41.55;99309.58;124714;1096;64339;-83
2021/05/24 11:07:33;;;;;;;2.80;1.40;;;;;;;23.20;40.95;99302.45;124687;1097;64278;-83
2021/05/24 11:10:20;;;;;;;4.40;2.05;;;;;;;23.20;41.55;99297.02;124618;1104;64463;-84
2021/05/24 11:12:52;;;;;;;2.20;1.70;;;;;;;23.29;41.58;99295.09;124635;1104;64390;-84
2021/05/24 11:15:31;;;;;;;2.10;1.65;;;;;;;23.28;40.96;99279.81;124585;1104;64362;-84
2021/05/24 11:18:02;;;;;;;1.50;1.33;;;;;;;23.41;41.18;99280.09;124668;1104;64284;-84
2021/05/24 11:20:48;;;;;;;2.80;1.60;;;;;;;23.55;41.48;99279.31;124605;1096;64253;-84
2021/05/24 11:26:01;;;;;;;5.53;1.47;;;;;;;23.27;40.14;99270.78;124605;1104;64757;-84
2021/05/24 11:28:58;;;;;;;1.17;1.07;;;;;;;23.08;40.59;99265.79;124680;1104;64339;-83
2021/05/24 11:31:35;;;;;;;1.43;1.30;;;;;;;23.09;40.01;99254.75;124721;1104;64343;-83
2021/05/24 11:34:05;;;;;;;1.10;0.97;;;;;;;22.88;40.30;99246.28;124761;1104;64424;-83